createdAt,value
2019-03-09T00:01:00.227Z,55.10
2019-03-09T00:02:09.257Z,55.72
2019-03-09T00:03:15.929Z,56.81
2019-03-09T00:04:23.268Z,56.96
2019-03-09T00:05:29.511Z,57.99
2019-03-09T00:06:35.958Z,58.80
2019-03-09T00:07:43.269Z,59.49
2019-03-09T00:08:48.978Z,61.36
2019-03-09T00:09:54.760Z,64.54
2019-03-09T00:11:00.548Z,64.78
2019-03-09T00:12:06.418Z,63.46
2019-03-09T00:13:13.696Z,61.69
2019-03-09T00:14:20.658Z,59.53
2019-03-09T00:15:26.538Z,57.18
2019-03-09T00:16:32.278Z,55.19
2019-03-09T00:17:38.154Z,54.73
2019-03-09T00:18:45.129Z,54.94
2019-03-09T00:19:52.269Z,55.63
2019-03-09T00:21:00.700Z,56.40
2019-03-09T00:22:09.118Z,56.77
2019-03-09T00:23:19.158Z,57.71
2019-03-09T00:24:27.768Z,58.33
2019-03-09T00:25:37.508Z,59.27
2019-03-09T00:26:46.949Z,60.84
2019-03-09T00:27:55.159Z,64.45
2019-03-09T00:29:03.279Z,65.27
2019-03-09T00:30:28.579Z,64.08
2019-03-09T00:31:44.329Z,62.39
2019-03-09T00:32:50.839Z,60.34
2019-03-09T00:33:57.913Z,57.23
2019-03-09T00:35:04.219Z,54.85
2019-03-09T00:36:11.029Z,54.50
2019-03-09T00:37:17.182Z,54.38
2019-03-09T00:38:23.043Z,54.75
2019-03-09T00:39:28.779Z,55.83
2019-03-09T00:40:57.000Z,56.48
2019-03-09T00:42:03.000Z,56.79
2019-03-09T00:43:10.920Z,58.38
2019-03-09T00:44:16.979Z,58.75
2019-03-09T00:45:22.819Z,59.72
2019-03-09T00:46:28.597Z,61.39
2019-03-09T00:47:34.307Z,65.10
2019-03-09T00:48:40.157Z,65.53
2019-03-09T00:49:47.480Z,64.17
2019-03-09T00:50:54.449Z,62.68
2019-03-09T00:52:01.802Z,61.41
2019-03-09T00:53:09.540Z,59.79
2019-03-09T00:54:16.800Z,56.98
2019-03-09T00:55:24.349Z,55.30
2019-03-09T00:56:32.751Z,55.34
2019-03-09T00:57:39.399Z,55.61
2019-03-09T00:58:45.970Z,56.18
2019-03-09T00:59:57.441Z,57.04
2019-03-09T01:01:04.230Z,57.89
2019-03-09T01:02:11.390Z,59.07
2019-03-09T01:03:19.852Z,59.40
2019-03-09T01:04:27.119Z,60.39
2019-03-09T01:05:33.638Z,64.39
2019-03-09T01:06:39.920Z,65.72
2019-03-09T01:07:47.151Z,65.27
2019-03-09T01:08:52.879Z,63.48
2019-03-09T01:09:59.700Z,62.16
2019-03-09T01:11:05.505Z,61.03
2019-03-09T01:12:11.372Z,59.34
2019-03-09T01:13:17.314Z,57.52
2019-03-09T01:14:23.198Z,55.75
2019-03-09T01:15:28.930Z,55.91
2019-03-09T01:16:34.840Z,55.93
2019-03-09T01:17:40.738Z,56.85
2019-03-09T01:18:48.703Z,57.33
2019-03-09T01:19:55.144Z,58.17
2019-03-09T01:21:02.310Z,58.96
2019-03-09T01:22:08.405Z,60.02
2019-03-09T01:23:14.880Z,61.13
2019-03-09T01:24:21.321Z,65.03
2019-03-09T01:25:28.121Z,65.70
2019-03-09T01:26:35.042Z,64.37
2019-03-09T01:27:41.864Z,63.63
2019-03-09T01:28:49.081Z,62.39
2019-03-09T01:29:56.141Z,60.62
2019-03-09T01:31:02.629Z,59.49
2019-03-09T01:32:09.370Z,57.84
2019-03-09T01:33:16.431Z,56.07
2019-03-09T01:34:22.971Z,55.92
2019-03-09T01:35:29.910Z,56.35
2019-03-09T01:36:36.441Z,57.06
2019-03-09T01:37:42.441Z,57.80
2019-03-09T01:38:48.332Z,58.59
2019-03-09T01:39:54.401Z,59.17
2019-03-09T01:41:00.139Z,60.00
2019-03-09T01:42:05.933Z,61.23
2019-03-09T01:43:11.781Z,64.49
2019-03-09T01:44:17.541Z,65.86
2019-03-09T01:45:23.405Z,64.50
2019-03-09T01:46:29.221Z,64.12
2019-03-09T01:47:35.219Z,62.79
2019-03-09T01:48:41.866Z,61.58
2019-03-09T01:49:48.434Z,60.30
2019-03-09T01:50:55.040Z,58.85
2019-03-09T01:52:01.921Z,56.62
2019-03-09T01:53:08.912Z,55.04
2019-03-09T01:54:15.892Z,55.08
2019-03-09T01:55:22.461Z,55.54
2019-03-09T01:56:29.071Z,56.30
2019-03-09T01:57:35.673Z,57.14
2019-03-09T01:58:42.633Z,58.25
2019-03-09T01:59:49.582Z,59.07
2019-03-09T02:00:55.950Z,60.09
2019-03-09T02:02:03.111Z,60.80
2019-03-09T02:03:10.722Z,63.93
2019-03-09T02:04:17.572Z,66.44
2019-03-09T02:05:24.491Z,65.57
2019-03-09T02:06:30.714Z,64.77
2019-03-09T02:07:36.765Z,63.41
2019-03-09T02:08:42.603Z,61.89
2019-03-09T02:09:48.541Z,60.49
2019-03-09T02:10:54.392Z,59.27
2019-03-09T02:12:00.168Z,57.26
2019-03-09T02:13:06.102Z,55.70
2019-03-09T02:14:12.012Z,55.51
2019-03-09T02:15:17.831Z,56.08
2019-03-09T02:16:25.062Z,56.76
2019-03-09T02:17:30.992Z,57.34
2019-03-09T02:18:37.481Z,58.54
2019-03-09T02:19:44.852Z,59.69
2019-03-09T02:20:51.482Z,60.59
2019-03-09T02:21:58.084Z,61.58
2019-03-09T02:23:04.712Z,63.03
2019-03-09T02:24:12.372Z,66.58
2019-03-09T02:25:18.891Z,67.16
2019-03-09T02:26:25.102Z,66.07
2019-03-09T02:27:32.752Z,64.75
2019-03-09T02:28:39.672Z,63.69
2019-03-09T02:29:45.783Z,61.81
2019-03-09T02:30:52.413Z,60.73
2019-03-09T02:31:58.844Z,59.73
2019-03-09T02:33:06.712Z,57.91
2019-03-09T02:34:13.613Z,56.38
2019-03-09T02:35:20.713Z,56.34
2019-03-09T02:36:27.943Z,56.98
2019-03-09T02:37:33.945Z,57.57
2019-03-09T02:38:41.378Z,58.50
2019-03-09T02:39:51.304Z,59.09
2019-03-09T02:40:57.253Z,60.03
2019-03-09T02:42:03.066Z,61.03
2019-03-09T02:43:08.841Z,61.97
2019-03-09T02:44:14.678Z,64.57
2019-03-09T02:45:27.188Z,67.28
2019-03-09T02:46:34.154Z,67.76
2019-03-09T02:47:39.944Z,66.44
2019-03-09T02:48:46.482Z,65.08
2019-03-09T02:49:53.474Z,63.58
2019-03-09T02:51:01.472Z,62.65
2019-03-09T02:52:08.483Z,61.21
2019-03-09T02:53:15.484Z,60.11
2019-03-09T02:54:23.523Z,59.57
2019-03-09T02:55:30.124Z,58.20
2019-03-09T02:56:37.555Z,56.66
2019-03-09T02:57:44.052Z,56.33
2019-03-09T02:58:50.447Z,56.87
2019-03-09T02:59:57.094Z,57.67
2019-03-09T03:01:11.843Z,58.32
2019-03-09T03:02:26.644Z,59.44
2019-03-09T03:03:34.921Z,60.64
2019-03-09T03:04:41.504Z,61.46
2019-03-09T03:05:48.395Z,62.63
2019-03-09T03:06:55.135Z,64.26
2019-03-09T03:08:03.125Z,67.18
2019-03-09T03:09:08.959Z,66.91
2019-03-09T03:10:17.864Z,66.93
2019-03-09T03:11:23.745Z,66.29
2019-03-09T03:12:29.586Z,65.24
2019-03-09T03:13:35.344Z,63.69
2019-03-09T03:14:41.120Z,63.32
2019-03-09T03:15:46.918Z,62.34
2019-03-09T03:16:52.874Z,61.33
2019-03-09T03:18:00.396Z,60.72
2019-03-09T03:19:07.604Z,60.24
2019-03-09T03:20:15.564Z,59.57
2019-03-09T03:21:22.612Z,58.19
2019-03-09T03:22:29.449Z,57.20
2019-03-09T03:23:37.205Z,57.31
2019-03-09T03:24:44.002Z,57.92
2019-03-09T03:25:51.406Z,58.94
2019-03-09T03:26:58.274Z,60.31
2019-03-09T03:28:05.086Z,60.56
2019-03-09T03:29:11.926Z,62.11
2019-03-09T03:30:19.096Z,64.03
2019-03-09T03:31:26.340Z,66.42
2019-03-09T03:32:35.140Z,66.85
2019-03-09T03:33:42.020Z,65.19
2019-03-09T03:34:48.887Z,65.26
2019-03-09T03:35:54.906Z,64.57
2019-03-09T03:37:01.379Z,62.88
2019-03-09T03:38:07.461Z,62.45
2019-03-09T03:39:13.307Z,61.36
2019-03-09T03:40:19.065Z,60.29
2019-03-09T03:41:24.840Z,60.35
2019-03-09T03:42:30.694Z,60.05
2019-03-09T03:43:36.576Z,59.13
2019-03-09T03:44:45.502Z,58.22
2019-03-09T03:45:51.356Z,57.64
2019-03-09T03:46:58.401Z,58.17
2019-03-09T03:48:04.276Z,58.68
2019-03-09T03:49:11.254Z,59.53
2019-03-09T03:50:17.837Z,60.44
2019-03-09T03:51:25.166Z,62.22
2019-03-09T03:52:32.085Z,64.17
2019-03-09T03:53:59.377Z,66.56
2019-03-09T03:55:09.086Z,67.39
2019-03-09T03:56:16.154Z,66.08
2019-03-09T03:57:23.406Z,65.45
2019-03-09T03:58:30.479Z,64.09
2019-03-09T03:59:38.837Z,63.07
2019-03-09T04:00:45.777Z,61.82
2019-03-09T04:01:51.955Z,61.24
2019-03-09T04:02:58.247Z,60.71
2019-03-09T04:04:05.085Z,60.07
2019-03-09T04:05:11.866Z,59.53
2019-03-09T04:06:18.824Z,58.21
2019-03-09T04:07:26.398Z,56.95
2019-03-09T04:08:32.220Z,56.96
2019-03-09T04:09:38.021Z,58.13
2019-03-09T04:10:43.967Z,59.13
2019-03-09T04:11:49.838Z,60.06
2019-03-09T04:12:57.107Z,60.80
2019-03-09T04:14:02.992Z,61.41
2019-03-09T04:15:08.796Z,63.42
2019-03-09T04:16:14.692Z,65.70
2019-03-09T04:17:22.196Z,66.49
2019-03-09T04:18:29.497Z,66.41
2019-03-09T04:19:35.809Z,65.82
2019-03-09T04:20:42.428Z,64.51
2019-03-09T04:21:49.327Z,63.94
2019-03-09T04:22:56.598Z,62.84
2019-03-09T04:24:05.869Z,62.29
2019-03-09T04:25:13.526Z,61.18
2019-03-09T04:26:20.600Z,60.33
2019-03-09T04:27:29.318Z,60.25
2019-03-09T04:28:37.846Z,59.91
2019-03-09T04:29:44.428Z,59.50
2019-03-09T04:30:51.078Z,58.43
2019-03-09T04:31:58.431Z,57.55
2019-03-09T04:33:05.918Z,57.87
2019-03-09T04:34:12.324Z,58.61
2019-03-09T04:35:18.895Z,59.25
2019-03-09T04:36:25.927Z,60.30
2019-03-09T04:37:32.087Z,61.29
2019-03-09T04:38:37.888Z,62.50
2019-03-09T04:39:43.860Z,64.65
2019-03-09T04:40:49.627Z,66.68
2019-03-09T04:41:55.688Z,67.69
2019-03-09T04:43:01.514Z,66.98
2019-03-09T04:44:07.347Z,65.85
2019-03-09T04:45:14.047Z,64.51
2019-03-09T04:46:19.857Z,63.94
2019-03-09T04:47:25.637Z,62.78
2019-03-09T04:48:31.516Z,61.74
2019-03-09T04:49:40.237Z,61.24
2019-03-09T04:50:47.018Z,60.49
2019-03-09T04:51:53.885Z,59.70
2019-03-09T04:53:02.109Z,58.30
2019-03-09T04:54:10.138Z,57.13
2019-03-09T04:55:16.927Z,57.28
2019-03-09T04:56:24.518Z,58.18
2019-03-09T04:57:30.997Z,59.71
2019-03-09T04:58:38.146Z,60.14
2019-03-09T04:59:45.488Z,61.61
2019-03-09T05:00:52.046Z,62.56
2019-03-09T05:01:58.940Z,65.00
2019-03-09T05:03:05.692Z,67.64
2019-03-09T05:04:28.970Z,66.78
2019-03-09T05:05:35.808Z,66.55
2019-03-09T05:06:42.717Z,65.53
2019-03-09T05:07:56.211Z,64.28
2019-03-09T05:09:15.679Z,63.18
2019-03-09T05:10:37.617Z,62.48
2019-03-09T05:11:43.349Z,61.73
2019-03-09T05:12:59.718Z,60.85
2019-03-09T05:14:05.476Z,60.16
2019-03-09T05:15:14.548Z,59.69
2019-03-09T05:16:20.369Z,59.59
2019-03-09T05:17:26.237Z,58.42
2019-03-09T05:18:33.666Z,57.53
2019-03-09T05:19:40.759Z,57.57
2019-03-09T05:20:48.218Z,58.46
2019-03-09T05:21:54.746Z,58.66
2019-03-09T05:23:00.838Z,60.50
2019-03-09T05:24:09.448Z,60.99
2019-03-09T05:25:16.240Z,62.60
2019-03-09T05:26:23.389Z,65.13
2019-03-09T05:27:31.449Z,67.24
2019-03-09T05:28:37.700Z,66.76
2019-03-09T05:29:44.216Z,65.54
2019-03-09T05:30:51.186Z,65.00
2019-03-09T05:31:57.709Z,65.02
2019-03-09T05:33:05.196Z,64.17
2019-03-09T05:34:12.759Z,63.64
2019-03-09T05:35:19.699Z,62.04
2019-03-09T05:36:26.406Z,62.10
2019-03-09T05:37:32.267Z,61.38
2019-03-09T05:38:38.099Z,60.84
2019-03-09T05:39:44.639Z,60.03
2019-03-09T05:41:11.509Z,59.53
2019-03-09T05:42:17.288Z,58.03
2019-03-09T05:43:23.129Z,57.46
2019-03-09T05:44:29.019Z,57.85
2019-03-09T05:45:34.954Z,58.85
2019-03-09T05:46:41.158Z,59.62
2019-03-09T05:47:46.971Z,60.52
2019-03-09T05:48:53.849Z,61.89
2019-03-09T05:50:00.775Z,63.80
2019-03-09T05:51:07.455Z,66.02
2019-03-09T05:52:27.349Z,65.97
2019-03-09T05:53:33.709Z,65.30
2019-03-09T05:54:42.524Z,63.62
2019-03-09T05:55:49.100Z,63.08
2019-03-09T05:56:55.922Z,62.42
2019-03-09T05:58:02.329Z,60.84
2019-03-09T05:59:09.957Z,60.38
2019-03-09T06:00:17.179Z,59.34
2019-03-09T06:01:24.009Z,58.12
2019-03-09T06:02:31.409Z,57.08
2019-03-09T06:03:54.480Z,57.54
2019-03-09T06:05:36.079Z,58.22
2019-03-09T06:06:43.050Z,59.87
2019-03-09T06:07:50.559Z,61.26
2019-03-09T06:08:56.629Z,62.40
2019-03-09T06:10:02.390Z,64.95
2019-03-09T06:11:08.298Z,66.69
2019-03-09T06:12:14.220Z,66.98
2019-03-09T06:13:20.380Z,66.79
2019-03-09T06:14:26.279Z,65.45
2019-03-09T06:15:32.270Z,64.53
2019-03-09T06:16:39.044Z,63.60
2019-03-09T06:17:44.909Z,63.26
2019-03-09T06:18:51.440Z,62.08
2019-03-09T06:20:17.769Z,60.79
2019-03-09T06:21:44.229Z,60.90
2019-03-09T06:23:01.471Z,60.85
2019-03-09T06:24:23.264Z,60.42
2019-03-09T06:25:42.000Z,59.78
2019-03-09T06:26:55.262Z,59.42
2019-03-09T06:28:11.750Z,58.39
2019-03-09T06:29:20.941Z,57.73
2019-03-09T06:30:28.221Z,58.50
2019-03-09T06:31:36.109Z,59.74
2019-03-09T06:33:06.551Z,60.36
2019-03-09T06:34:17.297Z,61.50
2019-03-09T06:35:28.671Z,62.96
2019-03-09T06:36:44.131Z,64.66
2019-03-09T06:38:16.883Z,67.55
2019-03-09T06:39:22.710Z,68.40
2019-03-09T06:40:28.562Z,67.14
2019-03-09T06:41:51.138Z,65.47
2019-03-09T06:42:57.272Z,64.15
2019-03-09T06:44:03.246Z,63.45
2019-03-09T06:45:12.219Z,61.83
2019-03-09T06:46:19.262Z,62.64
2019-03-09T06:47:25.072Z,62.05
2019-03-09T06:48:33.612Z,61.77
2019-03-09T06:49:42.465Z,61.21
2019-03-09T06:50:48.941Z,60.27
2019-03-09T06:51:55.201Z,59.84
2019-03-09T06:53:02.983Z,59.73
2019-03-09T06:54:10.521Z,58.95
2019-03-09T06:55:19.811Z,57.34
2019-03-09T06:56:26.503Z,57.52
2019-03-09T06:57:33.951Z,59.19
2019-03-09T06:58:41.112Z,59.74
2019-03-09T06:59:47.641Z,60.20
2019-03-09T07:00:56.292Z,61.29
2019-03-09T07:02:02.500Z,62.00
2019-03-09T07:03:11.101Z,64.20
2019-03-09T07:04:17.652Z,65.33
2019-03-09T07:05:24.491Z,65.13
2019-03-09T07:06:31.242Z,63.75
2019-03-09T07:07:38.363Z,63.01
2019-03-09T07:08:45.853Z,62.13
2019-03-09T07:09:51.667Z,61.35
2019-03-09T07:10:57.472Z,60.49
2019-03-09T07:12:03.286Z,59.60
2019-03-09T07:13:09.283Z,58.67
2019-03-09T07:14:55.595Z,57.92
2019-03-09T07:16:02.625Z,58.07
2019-03-09T07:17:08.753Z,59.58
2019-03-09T07:18:17.423Z,60.86
2019-03-09T07:19:24.012Z,62.26
2019-03-09T07:20:31.234Z,63.79
2019-03-09T07:21:38.404Z,64.69
2019-03-09T07:22:46.792Z,64.80
2019-03-09T07:23:54.526Z,63.57
2019-03-09T07:25:01.405Z,62.84
2019-03-09T07:26:09.315Z,62.08
2019-03-09T07:27:17.103Z,60.09
2019-03-09T07:28:24.242Z,59.66
2019-03-09T07:29:31.215Z,58.58
2019-03-09T07:30:38.052Z,56.72
2019-03-09T07:31:45.733Z,57.55
2019-03-09T07:32:52.354Z,58.04
2019-03-09T07:34:25.385Z,58.88
2019-03-09T07:35:32.302Z,59.70
2019-03-09T07:36:39.542Z,60.23
2019-03-09T07:37:45.332Z,62.29
2019-03-09T07:38:51.332Z,63.15
2019-03-09T07:39:57.114Z,65.37
2019-03-09T07:41:03.198Z,65.65
2019-03-09T07:42:10.351Z,64.48
2019-03-09T07:43:16.282Z,63.26
2019-03-09T07:44:22.143Z,61.83
2019-03-09T07:45:27.933Z,60.03
2019-03-09T07:46:35.318Z,58.83
2019-03-09T07:47:41.191Z,57.69
2019-03-09T07:48:48.301Z,56.80
2019-03-09T07:49:56.572Z,56.43
2019-03-09T07:51:03.662Z,57.75
2019-03-09T07:52:35.854Z,58.52
2019-03-09T07:53:42.802Z,59.30
2019-03-09T07:54:52.179Z,60.44
2019-03-09T07:55:59.566Z,60.89
2019-03-09T07:57:05.943Z,62.07
2019-03-09T07:58:12.431Z,63.32
2019-03-09T07:59:20.724Z,64.97
2019-03-09T08:00:28.215Z,64.65
2019-03-09T08:01:39.503Z,63.51
2019-03-09T08:02:46.214Z,61.92
2019-03-09T08:03:56.043Z,60.79
2019-03-09T08:05:02.433Z,60.15
2019-03-09T08:06:09.325Z,58.42
2019-03-09T08:07:15.060Z,57.09
2019-03-09T08:08:20.873Z,57.17
2019-03-09T08:09:28.124Z,57.96
2019-03-09T08:10:34.028Z,58.46
2019-03-09T08:11:40.027Z,59.23
2019-03-09T08:12:45.871Z,60.81
2019-03-09T08:13:51.872Z,60.67
2019-03-09T08:14:57.754Z,61.34
2019-03-09T08:16:03.655Z,62.51
2019-03-09T08:17:09.585Z,64.56
2019-03-09T08:18:15.475Z,64.67
2019-03-09T08:19:22.184Z,63.95
2019-03-09T08:20:29.468Z,62.24
2019-03-09T08:21:36.854Z,60.87
2019-03-09T08:22:43.724Z,60.48
2019-03-09T08:23:51.152Z,59.15
2019-03-09T08:24:57.816Z,56.46
2019-03-09T08:26:05.306Z,56.09
2019-03-09T08:27:12.242Z,55.30
2019-03-09T08:28:19.286Z,56.22
2019-03-09T08:29:26.832Z,56.44
2019-03-09T08:30:34.328Z,56.56
2019-03-09T08:31:41.614Z,57.15
2019-03-09T08:32:51.748Z,58.35
2019-03-09T08:33:59.548Z,59.36
2019-03-09T08:35:09.622Z,59.65
2019-03-09T08:36:16.225Z,60.46
2019-03-09T08:37:23.925Z,60.84
2019-03-09T08:38:30.164Z,61.76
2019-03-09T08:39:35.959Z,62.01
2019-03-09T08:40:43.574Z,61.87
2019-03-09T08:41:49.651Z,62.05
2019-03-09T08:42:55.674Z,62.72
2019-03-09T08:44:01.571Z,64.48
2019-03-09T08:45:12.443Z,65.72
2019-03-09T08:46:18.724Z,63.06
2019-03-09T08:47:35.955Z,61.79
2019-03-09T08:48:42.895Z,61.13
2019-03-09T08:49:49.863Z,59.26
2019-03-09T08:50:56.985Z,57.57
2019-03-09T08:52:03.375Z,56.75
2019-03-09T08:53:09.754Z,57.06
2019-03-09T08:54:16.554Z,56.97
2019-03-09T08:55:23.465Z,58.60
2019-03-09T08:56:30.494Z,58.68
2019-03-09T08:57:38.282Z,60.20
2019-03-09T08:58:45.192Z,59.52
2019-03-09T08:59:52.578Z,60.72
2019-03-09T09:01:00.155Z,61.23
2019-03-09T09:02:08.897Z,61.73
2019-03-09T09:03:16.256Z,61.92
2019-03-09T09:04:24.706Z,62.89
2019-03-09T09:05:33.696Z,63.59
2019-03-09T09:06:41.535Z,63.20
2019-03-09T09:07:47.777Z,61.76
2019-03-09T09:08:53.618Z,60.42
2019-03-09T09:10:01.084Z,58.87
2019-03-09T09:11:07.055Z,56.28
2019-03-09T09:12:13.626Z,54.48
2019-03-09T09:13:19.718Z,55.42
2019-03-09T09:14:28.138Z,55.34
2019-03-09T09:15:38.430Z,54.76
2019-03-09T09:16:46.476Z,55.37
2019-03-09T09:17:52.439Z,57.12
2019-03-09T09:18:59.146Z,57.62
2019-03-09T09:20:10.337Z,58.24
2019-03-09T09:21:17.336Z,58.49
2019-03-09T09:22:23.685Z,59.64
2019-03-09T09:23:32.186Z,60.11
2019-03-09T09:24:39.426Z,60.91
2019-03-09T09:25:47.076Z,60.99
2019-03-09T09:26:54.796Z,62.50
2019-03-09T09:28:02.708Z,64.30
2019-03-09T09:29:09.700Z,64.85
2019-03-09T09:30:32.379Z,64.44
2019-03-09T09:31:39.356Z,63.12
2019-03-09T09:32:46.951Z,61.69
2019-03-09T09:33:53.596Z,59.98
2019-03-09T09:35:00.539Z,59.39
2019-03-09T09:36:10.510Z,58.08
2019-03-09T09:37:17.882Z,56.78
2019-03-09T09:38:23.879Z,57.59
2019-03-09T09:39:30.005Z,58.64
2019-03-09T09:40:35.913Z,59.94
2019-03-09T09:41:42.016Z,60.34
2019-03-09T09:42:48.404Z,61.52
2019-03-09T09:43:54.668Z,62.63
2019-03-09T09:45:02.290Z,64.14
2019-03-09T09:46:09.597Z,64.19
2019-03-09T09:47:15.447Z,65.38
2019-03-09T09:48:22.288Z,64.30
2019-03-09T09:49:28.556Z,63.76
2019-03-09T09:50:36.040Z,63.55
2019-03-09T09:51:42.628Z,62.34
2019-03-09T09:52:50.199Z,61.80
2019-03-09T09:53:57.417Z,61.60
2019-03-09T09:55:05.056Z,59.34
2019-03-09T09:56:12.591Z,59.14
2019-03-09T09:57:19.677Z,58.77
2019-03-09T09:58:27.137Z,59.26
2019-03-09T09:59:34.651Z,60.91
2019-03-09T10:00:42.578Z,60.00
2019-03-09T10:01:48.907Z,62.60
2019-03-09T10:02:55.657Z,65.22
2019-03-09T10:04:02.278Z,64.92
2019-03-09T10:05:12.308Z,65.91
2019-03-09T10:06:20.754Z,65.47
2019-03-09T10:07:26.794Z,64.99
2019-03-09T10:08:33.398Z,62.97
2019-03-09T10:09:39.248Z,63.24
2019-03-09T10:10:45.069Z,62.97
2019-03-09T10:11:50.865Z,61.75
2019-03-09T10:12:56.648Z,61.52
2019-03-09T10:14:02.540Z,61.12
2019-03-09T10:15:13.381Z,60.30
2019-03-09T10:16:19.249Z,59.68
2019-03-09T10:17:25.069Z,58.83
2019-03-09T10:18:31.919Z,58.03
2019-03-09T10:19:38.968Z,58.26
2019-03-09T10:20:46.003Z,59.19
2019-03-09T10:21:54.506Z,60.66
2019-03-09T10:23:04.486Z,61.55
2019-03-09T10:24:10.547Z,62.80
2019-03-09T10:25:17.763Z,65.19
2019-03-09T10:26:26.543Z,65.73
2019-03-09T10:27:34.048Z,66.83
2019-03-09T10:28:40.571Z,66.21
2019-03-09T10:29:47.898Z,64.05
2019-03-09T10:30:55.517Z,63.66
2019-03-09T10:32:01.932Z,62.58
2019-03-09T10:33:09.888Z,61.98
2019-03-09T10:34:15.884Z,61.30
2019-03-09T10:35:22.828Z,61.10
2019-03-09T10:36:29.708Z,61.38
2019-03-09T10:37:35.618Z,60.99
2019-03-09T10:38:42.039Z,60.73
2019-03-09T10:39:47.919Z,60.34
2019-03-09T10:40:53.919Z,60.22
2019-03-09T10:41:59.729Z,60.06
2019-03-09T10:43:05.746Z,60.19
2019-03-09T10:44:11.675Z,60.25
2019-03-09T10:45:22.239Z,60.06
2019-03-09T10:46:28.358Z,59.61
2019-03-09T10:47:35.410Z,59.52
2019-03-09T10:48:41.689Z,59.17
2019-03-09T10:49:48.816Z,58.76
2019-03-09T10:50:55.550Z,59.67
2019-03-09T10:52:04.052Z,60.82
2019-03-09T10:53:10.907Z,62.04
2019-03-09T10:54:17.566Z,64.62
2019-03-09T10:55:33.209Z,66.41
2019-03-09T10:56:40.746Z,65.85
2019-03-09T10:57:47.679Z,65.60
2019-03-09T10:58:54.139Z,65.81
2019-03-09T11:00:01.501Z,64.73
2019-03-09T11:01:09.716Z,64.49
2019-03-09T11:02:16.624Z,64.47
2019-03-09T11:03:23.140Z,64.00
2019-03-09T11:04:30.556Z,63.89
2019-03-09T11:05:38.467Z,63.49
2019-03-09T11:06:45.359Z,62.77
2019-03-09T11:07:54.456Z,63.51
2019-03-09T11:09:00.488Z,63.31
2019-03-09T11:10:11.030Z,62.86
2019-03-09T11:11:17.108Z,63.04
2019-03-09T11:12:22.990Z,63.07
2019-03-09T11:13:28.729Z,62.91
2019-03-09T11:14:34.487Z,62.81
2019-03-09T11:15:40.360Z,62.70
2019-03-09T11:16:46.220Z,62.54
2019-03-09T11:17:52.032Z,62.42
2019-03-09T11:19:00.080Z,62.12
2019-03-09T11:20:11.633Z,61.85
2019-03-09T11:21:18.158Z,61.24
2019-03-09T11:22:25.261Z,61.16
2019-03-09T11:23:34.348Z,61.17
2019-03-09T11:24:40.947Z,61.18
2019-03-09T11:25:47.680Z,61.48
2019-03-09T11:26:54.360Z,61.18
2019-03-09T11:28:15.111Z,61.43
2019-03-09T11:29:21.861Z,61.51
2019-03-09T11:30:30.470Z,61.29
2019-03-09T11:31:37.501Z,61.38
2019-03-09T11:32:44.628Z,61.04
2019-03-09T11:33:50.940Z,61.57
2019-03-09T11:34:58.390Z,61.62
2019-03-09T11:36:06.470Z,61.34
2019-03-09T11:37:13.442Z,61.43
2019-03-09T11:38:19.274Z,61.60
2019-03-09T11:39:25.040Z,61.64
2019-03-09T11:40:32.667Z,60.88
2019-03-09T11:41:38.578Z,60.80
2019-03-09T11:42:44.453Z,60.80
2019-03-09T11:43:50.641Z,60.09
2019-03-09T11:44:57.783Z,60.74
2019-03-09T11:46:08.221Z,60.78
2019-03-09T11:47:17.461Z,60.64
2019-03-09T11:48:24.352Z,60.30
2019-03-09T11:49:33.206Z,60.83
2019-03-09T11:50:40.575Z,60.46
2019-03-09T11:51:48.207Z,60.69
2019-03-09T11:52:57.509Z,60.88
2019-03-09T11:54:05.928Z,60.56
2019-03-09T11:55:15.288Z,60.82
2019-03-09T11:56:22.495Z,60.59
2019-03-09T11:57:29.410Z,60.52
2019-03-09T11:58:38.267Z,60.31
2019-03-09T11:59:45.234Z,60.78
2019-03-09T12:00:52.153Z,61.15
2019-03-09T12:01:59.358Z,61.58
2019-03-09T12:03:08.067Z,61.52
2019-03-09T12:04:17.495Z,61.09
2019-03-09T12:05:25.187Z,59.78
2019-03-09T12:06:32.377Z,59.89
2019-03-09T12:07:39.535Z,60.15
2019-03-09T12:08:46.522Z,59.46
2019-03-09T12:09:53.479Z,59.03
2019-03-09T12:11:00.820Z,58.66
2019-03-09T12:12:07.875Z,59.86
2019-03-09T12:13:15.993Z,61.67
2019-03-09T12:14:23.256Z,62.76
2019-03-09T12:15:30.439Z,64.68
2019-03-09T12:16:39.176Z,66.17
2019-03-09T12:17:47.694Z,66.22
2019-03-09T12:18:55.397Z,65.40
2019-03-09T12:20:02.565Z,64.64
2019-03-09T12:21:09.935Z,63.69
2019-03-09T12:22:17.295Z,63.81
2019-03-09T12:23:26.381Z,62.95
2019-03-09T12:24:33.694Z,62.42
2019-03-09T12:25:41.323Z,62.02
2019-03-09T12:26:50.218Z,61.51
2019-03-09T12:27:57.247Z,61.28
2019-03-09T12:29:04.920Z,60.62
2019-03-09T12:30:21.563Z,59.74
2019-03-09T12:31:28.380Z,59.20
2019-03-09T12:32:36.899Z,58.74
2019-03-09T12:33:44.929Z,59.33
2019-03-09T12:34:52.311Z,59.38
2019-03-09T12:35:59.442Z,60.85
2019-03-09T12:37:06.129Z,62.64
2019-03-09T12:38:13.321Z,63.69
2019-03-09T12:39:20.093Z,64.70
2019-03-09T12:40:28.034Z,64.35
2019-03-09T12:41:36.671Z,63.70
2019-03-09T12:42:44.391Z,62.59
2019-03-09T12:43:52.361Z,61.66
2019-03-09T12:45:00.972Z,61.56
2019-03-09T12:46:10.452Z,61.34
2019-03-09T12:47:19.041Z,61.63
2019-03-09T12:48:25.800Z,61.25
2019-03-09T12:49:34.842Z,61.06
2019-03-09T12:50:42.273Z,60.16
2019-03-09T12:51:49.858Z,60.48
2019-03-09T12:52:56.927Z,61.15
2019-03-09T12:54:24.950Z,60.81
2019-03-09T12:55:33.865Z,61.90
2019-03-09T12:56:41.480Z,61.61
2019-03-09T12:57:50.659Z,60.20
2019-03-09T12:58:57.932Z,59.06
2019-03-09T13:00:05.286Z,58.27
2019-03-09T13:01:12.666Z,59.11
2019-03-09T13:02:21.705Z,60.56
2019-03-09T13:03:28.422Z,61.65
2019-03-09T13:04:35.943Z,60.94
2019-03-09T13:05:43.544Z,62.80
2019-03-09T13:06:50.681Z,64.46
2019-03-09T13:07:57.838Z,65.62
2019-03-09T13:09:05.757Z,63.40
2019-03-09T13:10:13.717Z,63.40
2019-03-09T13:11:20.496Z,62.13
2019-03-09T13:12:28.904Z,59.40
2019-03-09T13:13:35.670Z,59.00
2019-03-09T13:14:43.099Z,57.80
2019-03-09T13:15:49.794Z,58.29
2019-03-09T13:16:56.788Z,59.62
2019-03-09T13:18:04.559Z,60.07
2019-03-09T13:19:11.849Z,61.55
2019-03-09T13:20:20.283Z,62.58
2019-03-09T13:21:29.210Z,64.80
2019-03-09T13:22:36.449Z,65.92
2019-03-09T13:23:44.215Z,65.35
2019-03-09T13:24:51.930Z,63.70
2019-03-09T13:25:59.527Z,63.85
2019-03-09T13:27:07.051Z,61.70
2019-03-09T13:28:14.461Z,61.47
2019-03-09T13:29:21.501Z,59.36
2019-03-09T13:30:28.772Z,57.18
2019-03-09T13:31:35.780Z,57.12
2019-03-09T13:32:43.295Z,56.85
2019-03-09T13:33:51.949Z,58.94
2019-03-09T13:35:00.231Z,59.55
2019-03-09T13:36:08.440Z,61.06
2019-03-09T13:37:16.844Z,61.88
2019-03-09T13:38:24.011Z,62.40
2019-03-09T13:39:31.863Z,62.76
2019-03-09T13:40:39.141Z,64.81
2019-03-09T13:41:46.146Z,66.12
2019-03-09T13:42:53.595Z,65.10
2019-03-09T13:44:01.061Z,64.35
2019-03-09T13:45:13.036Z,60.95
2019-03-09T13:46:20.861Z,59.66
2019-03-09T13:47:28.574Z,59.45
2019-03-09T13:48:36.541Z,57.54
2019-03-09T13:49:43.655Z,56.45
2019-03-09T13:50:50.965Z,56.85
2019-03-09T13:51:58.414Z,57.67
2019-03-09T13:53:06.583Z,58.24
2019-03-09T13:54:13.501Z,59.74
2019-03-09T13:55:19.800Z,60.75
2019-03-09T13:56:28.062Z,61.10
2019-03-09T13:57:36.879Z,61.15
2019-03-09T13:58:43.062Z,62.07
2019-03-09T13:59:49.281Z,63.14
2019-03-09T14:00:55.561Z,64.71
2019-03-09T14:02:02.053Z,64.87
2019-03-09T14:03:09.164Z,63.58
2019-03-09T14:04:15.865Z,61.00
2019-03-09T14:05:22.499Z,58.94
2019-03-09T14:06:29.203Z,57.52
2019-03-09T14:07:35.855Z,57.40
2019-03-09T14:08:42.762Z,58.16
2019-03-09T14:09:49.121Z,58.19
2019-03-09T14:10:56.475Z,59.37
2019-03-09T14:12:02.682Z,60.51
2019-03-09T14:13:09.716Z,60.79
2019-03-09T14:14:16.575Z,61.81
2019-03-09T14:15:23.705Z,62.32
2019-03-09T14:16:30.495Z,64.32
2019-03-09T14:17:48.662Z,64.60
2019-03-09T14:18:56.562Z,64.32
2019-03-09T14:20:03.485Z,62.15
2019-03-09T14:21:10.523Z,61.35
2019-03-09T14:22:17.316Z,59.22
2019-03-09T14:23:25.023Z,57.70
2019-03-09T14:24:32.605Z,55.60
2019-03-09T14:25:40.595Z,56.07
2019-03-09T14:26:48.016Z,56.50
2019-03-09T14:27:55.862Z,56.85
2019-03-09T14:29:02.832Z,57.87
2019-03-09T14:30:17.484Z,58.40
2019-03-09T14:31:24.135Z,60.38
2019-03-09T14:32:30.924Z,60.60
2019-03-09T14:33:37.356Z,61.74